Time;durP1;ratioP1;P1;durP2;ratioP2;P2;SDS_P1;SDS_P2;PMS_P1;PMS_P2;Temp;Humidity;BMP_temperature;BMP_pressure;BME280_temperature;BME280_humidity;BME280_pressure;Samples;Min_cycle;Max_cycle;Signal;HPM_P1;HPM_P2
2021/03/18 05:00:21;;;;;;;;;;;3.00;99.90;;;;;;6071890;22;19919;-66
2021/03/18 05:02:47;;;;;;;;;;;3.00;99.90;;;;;;4997487;28;19925;-68
2021/03/18 05:05:15;;;;;;;;;;;3.00;99.90;;;;;;4997910;28;19926;-67
2021/03/18 05:07:42;;;;;;;;;;;3.00;99.90;;;;;;4997248;28;19987;-67
2021/03/18 05:10:09;;;;;;;;;;;3.00;99.90;;;;;;4997585;28;19925;-67
2021/03/18 05:12:36;;;;;;;;;;;3.10;99.90;;;;;;5038800;23;19925;-65
2021/03/18 05:15:03;;;;;;;;;;;3.10;99.90;;;;;;5036246;28;19929;-64
2021/03/18 05:17:30;;;;;;;;;;;3.10;99.90;;;;;;5036621;28;19936;-65
2021/03/18 05:19:56;;;;;;;;;;;3.10;99.90;;;;;;5036704;28;19929;-65
2021/03/18 05:22:22;;;;;;;;;;;3.10;99.90;;;;;;5036486;28;19925;-65
2021/03/18 05:24:48;;;;;;;;;;;3.10;99.90;;;;;;5036664;28;19925;-65
2021/03/18 05:27:14;;;;;;;;;;;3.10;99.90;;;;;;5036638;28;19925;-65
2021/03/18 05:29:40;;;;;;;;;;;3.10;99.90;;;;;;5036334;28;19925;-65
2021/03/18 05:32:06;;;;;;;;;;;3.10;99.90;;;;;;5036191;28;19979;-65
2021/03/18 05:34:33;;;;;;;;;;;3.10;99.90;;;;;;5036392;28;19925;-64
2021/03/18 05:36:59;;;;;;;;;;;3.00;99.90;;;;;;5035925;28;20383;-65
2021/03/18 05:39:25;;;;;;;;;;;3.10;99.90;;;;;;5036244;28;20399;-66
2021/03/18 05:41:52;;;;;;;;;;;3.00;99.90;;;;;;5036344;28;19929;-64
2021/03/18 05:44:18;;;;;;;;;;;3.00;99.90;;;;;;5036338;28;19932;-65
2021/03/18 05:46:44;;;;;;;;;;;3.00;99.90;;;;;;5036069;28;19925;-65
2021/03/18 05:49:12;;;;;;;;;;;2.90;99.90;;;;;;5035821;28;19925;-65
2021/03/18 05:51:40;;;;;;;;;;;3.00;99.90;;;;;;5035627;28;19972;-65
2021/03/18 05:54:09;;;;;;;;;;;2.90;99.90;;;;;;5035977;28;19929;-65
2021/03/18 05:56:35;;;;;;;;;;;3.00;99.90;;;;;;5035115;28;19925;-66
2021/03/18 05:59:01;;;;;;;;;;;3.00;99.90;;;;;;5034755;28;19925;-64
2021/03/18 06:01:27;;;;;;;;;;;3.10;99.90;;;;;;5034708;28;20450;-64
2021/03/18 06:03:53;;;;;;;;;;;3.20;99.90;;;;;;5035013;28;20280;-64
2021/03/18 06:06:20;;;;;;;;;;;3.30;99.90;;;;;;5035059;28;20295;-64
2021/03/18 06:08:47;;;;;;;;;;;3.30;99.90;;;;;;5034833;28;19929;-64
2021/03/18 06:11:13;;;;;;;;;;;3.30;99.90;;;;;;5034490;28;19925;-64
2021/03/18 06:13:39;;;;;;;;;;;3.30;99.90;;;;;;5034836;28;19932;-64
2021/03/18 06:16:06;;;;;;;;;;;3.40;99.90;;;;;;5034686;28;20004;-64
2021/03/18 06:18:33;;;;;;;;;;;3.50;99.90;;;;;;5034612;28;19925;-64
2021/03/18 06:20:59;;;;;;;;;;;3.60;99.90;;;;;;5034752;28;19925;-65
2021/03/18 06:23:27;;;;;;;;;;;3.70;99.90;;;;;;5035008;28;19925;-65
2021/03/18 06:25:54;;;;;;;;;;;3.90;99.90;;;;;;5034602;28;19979;-65
2021/03/18 06:28:22;;;;;;;;;;;4.00;99.90;;;;;;5034748;28;19925;-64
2021/03/18 06:30:55;;;;;;;;;;;4.20;99.90;;;;;;5034481;28;19933;-64
2021/03/18 06:33:22;;;;;;;;;;;4.20;99.90;;;;;;5034074;28;19932;-64
2021/03/18 06:35:48;;;;;;;;;;;4.40;99.90;;;;;;5034412;28;20384;-64
2021/03/18 06:38:15;;;;;;;;;;;4.70;99.90;;;;;;5035168;28;20288;-64
2021/03/18 06:40:41;;;;;;;;;;;5.00;99.90;;;;;;5034180;28;19971;-64
2021/03/18 06:43:09;;;;;;;;;;;5.20;99.90;;;;;;5033998;28;20376;-64
2021/03/18 06:45:36;;;;;;;;;;;5.30;99.90;;;;;;5034309;28;19925;-64
2021/03/18 06:48:03;;;;;;;;;;;5.20;99.90;;;;;;5034584;28;19925;-64
2021/03/18 06:50:31;;;;;;;;;;;5.20;99.90;;;;;;5034609;28;19948;-64
2021/03/18 06:52:57;;;;;;;;;;;5.20;99.90;;;;;;5034513;28;19936;-64
2021/03/18 06:55:27;;;;;;;;;;;5.00;99.90;;;;;;5034568;28;19932;-64
2021/03/18 06:58:12;;;;;;;;;;;4.80;99.90;;;;;;5035451;28;20435;-64
2021/03/18 07:00:39;;;;;;;;;;;4.60;99.90;;;;;;5046159;28;19925;-65
2021/03/18 07:03:06;;;;;;;;;;;4.70;99.90;;;;;;5047521;28;19926;-65
2021/03/18 07:05:37;;;;;;;;;;;4.80;99.90;;;;;;5050950;28;19925;-65
2021/03/18 07:08:03;;;;;;;;;;;4.80;99.90;;;;;;5052437;28;20375;-65
2021/03/18 07:10:33;;;;;;;;;;;5.10;99.90;;;;;;5038594;28;19932;-64
2021/03/18 07:13:13;;;;;;;;;;;5.20;99.90;;;;;;5038082;28;19925;-64
2021/03/18 07:15:40;;;;;;;;;;;5.30;99.90;;;;;;5037901;28;19948;-65
2021/03/18 07:18:07;;;;;;;;;;;5.50;99.90;;;;;;5037922;28;19929;-65
2021/03/18 07:20:33;;;;;;;;;;;5.40;99.90;;;;;;5037930;28;20338;-64
2021/03/18 07:22:59;;;;;;;;;;;5.40;99.90;;;;;;5037903;28;20287;-65
2021/03/18 07:25:26;;;;;;;;;;;5.60;99.90;;;;;;5037993;28;20291;-66
2021/03/18 07:27:53;;;;;;;;;;;5.80;99.90;;;;;;5037842;28;19984;-65
2021/03/18 07:30:23;;;;;;;;;;;6.00;99.90;;;;;;5037800;28;20314;-65
2021/03/18 07:32:51;;;;;;;;;;;6.30;99.90;;;;;;5038441;28;19925;-64
2021/03/18 07:35:17;;;;;;;;;;;6.30;99.90;;;;;;5037600;28;19929;-65
2021/03/18 07:37:43;;;;;;;;;;;6.40;99.90;;;;;;5037559;28;19932;-65
2021/03/18 07:40:09;;;;;;;;;;;6.40;99.90;;;;;;5037410;28;19926;-64
2021/03/18 07:42:36;;;;;;;;;;;6.40;99.90;;;;;;5037411;28;19925;-66
2021/03/18 07:45:03;;;;;;;;;;;6.50;99.90;;;;;;5037432;28;19932;-65
2021/03/18 07:47:29;;;;;;;;;;;6.40;99.90;;;;;;5037250;28;19924;-65
2021/03/18 07:49:58;;;;;;;;;;;6.70;99.90;;;;;;5037160;28;20344;-65
2021/03/18 07:52:26;;;;;;;;;;;6.90;99.90;;;;;;5036941;28;20379;-65
2021/03/18 07:54:53;;;;;;;;;;;7.40;99.90;;;;;;5037512;28;19929;-64
2021/03/18 07:57:19;;;;;;;;;;;7.80;99.90;;;;;;5036932;28;19925;-65
2021/03/18 07:59:46;;;;;;;;;;;9.00;99.90;;;;;;5037136;28;19925;-65
2021/03/18 08:02:14;;;;;;;;;;;9.60;99.90;;;;;;5037093;28;19925;-65
2021/03/18 08:04:41;;;;;;;;;;;10.10;99.90;;;;;;5037225;28;20016;-65
2021/03/18 08:07:08;;;;;;;;;;;11.00;99.90;;;;;;5037045;28;20303;-66
2021/03/18 08:09:52;;;;;;;;;;;12.10;99.90;;;;;;5037084;28;19941;-65
2021/03/18 08:12:36;;;;;;;;;;;12.30;95.50;;;;;;5036565;28;20299;-65
2021/03/18 08:15:17;;;;;;;;;;;12.00;94.30;;;;;;5036966;28;19925;-66
2021/03/18 08:17:43;;;;;;;;;;;12.90;93.60;;;;;;5037227;28;19976;-65
2021/03/18 08:20:10;;;;;;;;;;;13.40;89.90;;;;;;5036900;28;19926;-65
2021/03/18 08:22:37;;;;;;;;;;;13.80;88.90;;;;;;5036513;28;19975;-66
2021/03/18 08:25:22;;;;;;;;;;;14.20;85.40;;;;;;5036716;28;19925;-65
2021/03/18 08:27:48;;;;;;;;;;;13.70;83.30;;;;;;5036196;28;20384;-66
2021/03/18 08:30:19;;;;;;;;;;;13.90;82.50;;;;;;5036781;28;19925;-66
2021/03/18 08:32:45;;;;;;;;;;;12.00;85.60;;;;;;5036375;28;19932;-66
2021/03/18 08:35:24;;;;;;;;;;;11.50;91.00;;;;;;5036276;28;19925;-65
2021/03/18 08:37:51;;;;;;;;;;;10.60;90.70;;;;;;5036663;28;19932;-65
2021/03/18 08:40:27;;;;;;;;;;;10.90;93.00;;;;;;5035794;28;19929;-66
2021/03/18 08:42:59;;;;;;;;;;;11.20;93.30;;;;;;5036144;28;19925;-65
2021/03/18 08:45:40;;;;;;;;;;;11.40;92.70;;;;;;5036165;28;20342;-65
2021/03/18 08:48:08;;;;;;;;;;;11.30;93.10;;;;;;5035629;28;19929;-64
2021/03/18 08:50:48;;;;;;;;;;;12.70;91.30;;;;;;5036187;28;19929;-65
2021/03/18 08:53:25;;;;;;;;;;;12.80;91.60;;;;;;5035465;28;19925;-65
2021/03/18 08:55:51;;;;;;;;;;;12.60;90.00;;;;;;5036909;28;19924;-65
2021/03/18 08:58:17;;;;;;;;;;;12.90;90.60;;;;;;5037153;28;20268;-64
2021/03/18 09:00:45;;;;;;;;;;;12.60;88.00;;;;;;5039166;28;20291;-64
2021/03/18 09:03:14;;;;;;;;;;;11.60;92.30;;;;;;5037824;28;19929;-64
2021/03/18 09:05:48;;;;;;;;;;;10.80;92.50;;;;;;5036081;28;19976;-64
2021/03/18 09:08:20;;;;;;;;;;;10.50;95.40;;;;;;5036431;28;19929;-65
2021/03/18 09:10:47;;;;;;;;;;;10.00;96.10;;;;;;5036203;28;19925;-65
2021/03/18 09:13:14;;;;;;;;;;;9.30;96.60;;;;;;5040068;28;20372;-64
2021/03/18 09:15:41;;;;;;;;;;;8.90;98.90;;;;;;5037486;28;19925;-64
2021/03/18 09:18:12;;;;;;;;;;;8.40;99.90;;;;;;5037436;28;19935;-65
2021/03/18 09:20:39;;;;;;;;;;;8.40;99.90;;;;;;5037820;28;19953;-65
2021/03/18 09:23:09;;;;;;;;;;;8.50;99.90;;;;;;5038813;28;19925;-65
2021/03/18 09:25:35;;;;;;;;;;;8.40;99.90;;;;;;5038410;28;19932;-64
2021/03/18 09:28:03;;;;;;;;;;;8.80;99.90;;;;;;5039402;28;19926;-65
2021/03/18 09:30:30;;;;;;;;;;;9.70;99.90;;;;;;5036283;28;19925;-65
2021/03/18 09:32:56;;;;;;;;;;;10.80;97.70;;;;;;5035592;28;20292;-65
2021/03/18 09:35:23;;;;;;;;;;;11.00;96.50;;;;;;5035446;28;20410;-66
2021/03/18 09:37:49;;;;;;;;;;;11.50;97.10;;;;;;5035407;28;19925;-65
2021/03/18 09:40:16;;;;;;;;;;;11.60;95.70;;;;;;5035450;28;19925;-66
2021/03/18 09:42:43;;;;;;;;;;;12.50;92.30;;;;;;5035151;28;19956;-66
2021/03/18 09:45:11;;;;;;;;;;;12.50;92.10;;;;;;5035273;28;20043;-65
2021/03/18 09:47:37;;;;;;;;;;;12.60;90.90;;;;;;5035409;28;19932;-66
2021/03/18 09:50:04;;;;;;;;;;;13.20;90.90;;;;;;5035065;28;19926;-65
2021/03/18 09:52:30;;;;;;;;;;;13.80;90.70;;;;;;5034739;28;19940;-66
2021/03/18 09:54:57;;;;;;;;;;;13.20;90.10;;;;;;5034934;28;19932;-66
2021/03/18 09:57:23;;;;;;;;;;;12.40;90.10;;;;;;5034728;28;20362;-65
2021/03/18 09:59:50;;;;;;;;;;;11.20;90.70;;;;;;5034628;28;19929;-66
2021/03/18 10:02:18;;;;;;;;;;;10.90;91.50;;;;;;5035426;28;19925;-66
2021/03/18 10:04:45;;;;;;;;;;;9.90;95.00;;;;;;5034646;28;19933;-66
2021/03/18 10:07:11;;;;;;;;;;;9.50;96.70;;;;;;5034591;28;19944;-66
2021/03/18 10:09:39;;;;;;;;;;;8.70;98.80;;;;;;5034515;28;19929;-66
2021/03/18 10:12:06;;;;;;;;;;;8.30;99.90;;;;;;5034118;28;19925;-66
2021/03/18 10:14:34;;;;;;;;;;;8.30;99.90;;;;;;5034536;28;19932;-66
2021/03/18 10:17:01;;;;;;;;;;;8.20;99.90;;;;;;5035108;28;20024;-66
2021/03/18 10:19:28;;;;;;;;;;;8.00;99.90;;;;;;5034470;28;19925;-66
2021/03/18 10:21:55;;;;;;;;;;;8.00;99.90;;;;;;5034568;28;19975;-66
2021/03/18 10:24:21;;;;;;;;;;;8.00;99.90;;;;;;5034671;28;19964;-65
2021/03/18 10:26:47;;;;;;;;;;;8.40;99.90;;;;;;5034280;28;20376;-65
2021/03/18 10:29:14;;;;;;;;;;;8.90;99.90;;;;;;5034189;28;20368;-66
2021/03/18 10:31:41;;;;;;;;;;;9.90;98.70;;;;;;5034394;28;19925;-65
2021/03/18 10:34:19;;;;;;;;;;;11.30;96.00;;;;;;5034401;28;19929;-65
2021/03/18 10:36:46;;;;;;;;;;;13.10;91.00;;;;;;5034122;28;20307;-66
2021/03/18 10:39:13;;;;;;;;;;;13.30;85.50;;;;;;5034328;28;19929;-65
2021/03/18 10:41:47;;;;;;;;;;;14.00;87.00;;;;;;5033144;28;20411;-65
2021/03/18 10:44:13;;;;;;;;;;;14.70;79.80;;;;;;5034075;28;19925;-67
2021/03/18 10:46:39;;;;;;;;;;;15.60;81.40;;;;;;5034095;28;19925;-65
2021/03/18 10:49:06;;;;;;;;;;;15.40;73.80;;;;;;5035230;28;20311;-66
2021/03/18 10:51:41;;;;;;;;;;;15.80;66.80;;;;;;5036496;28;19979;-66
2021/03/18 10:54:08;;;;;;;;;;;16.10;70.30;;;;;;5042209;28;19932;-66
2021/03/18 10:56:34;;;;;;;;;;;17.10;69.40;;;;;;5040668;28;20380;-65
2021/03/18 10:59:12;;;;;;;;;;;16.40;72.40;;;;;;5040317;28;19925;-65
2021/03/18 11:01:38;;;;;;;;;;;15.60;70.10;;;;;;5038597;28;19937;-66
2021/03/18 11:04:05;;;;;;;;;;;14.30;69.90;;;;;;5034052;28;19940;-66
2021/03/18 11:06:31;;;;;;;;;;;13.50;75.90;;;;;;5034321;28;19971;-66
2021/03/18 11:08:57;;;;;;;;;;;13.10;73.10;;;;;;5033846;28;19925;-65
2021/03/18 11:11:25;;;;;;;;;;;12.40;74.20;;;;;;5034001;28;19925;-66
2021/03/18 11:14:03;;;;;;;;;;;11.90;79.30;;;;;;5034531;28;19937;-66
2021/03/18 11:16:29;;;;;;;;;;;11.30;78.50;;;;;;5033824;28;19928;-66
2021/03/18 11:18:56;;;;;;;;;;;10.50;84.30;;;;;;5034049;28;19957;-66
2021/03/18 11:21:23;;;;;;;;;;;10.10;86.40;;;;;;5033789;28;20383;-67
2021/03/18 11:23:50;;;;;;;;;;;9.80;90.10;;;;;;5034043;28;19925;-65
2021/03/18 11:26:18;;;;;;;;;;;9.70;90.40;;;;;;5034286;28;19925;-66
2021/03/18 11:29:02;;;;;;;;;;;9.00;90.40;;;;;;5033760;28;19925;-65
2021/03/18 11:31:29;;;;;;;;;;;8.70;90.40;;;;;;5033271;28;19975;-65
2021/03/18 11:33:55;;;;;;;;;;;8.60;91.40;;;;;;5033927;28;19932;-65
2021/03/18 11:36:22;;;;;;;;;;;8.40;91.40;;;;;;5034080;28;19929;-66
2021/03/18 11:38:49;;;;;;;;;;;8.10;92.10;;;;;;5034534;28;19933;-65
2021/03/18 11:41:15;;;;;;;;;;;7.70;92.60;;;;;;5033786;28;19989;-66
2021/03/18 11:43:41;;;;;;;;;;;7.40;93.00;;;;;;5033355;28;19933;-65
2021/03/18 11:46:07;;;;;;;;;;;7.30;95.00;;;;;;5033492;28;19929;-66
2021/03/18 11:48:35;;;;;;;;;;;7.30;94.60;;;;;;5033467;28;19932;-66
2021/03/18 11:51:01;;;;;;;;;;;7.40;96.50;;;;;;5033386;28;19925;-65
2021/03/18 11:53:27;;;;;;;;;;;7.20;93.40;;;;;;5033966;28;19929;-66
2021/03/18 11:55:54;;;;;;;;;;;7.30;94.40;;;;;;5037314;28;19932;-65
2021/03/18 11:58:20;;;;;;;;;;;7.60;95.80;;;;;;5037021;28;19932;-65
2021/03/18 12:00:46;;;;;;;;;;;7.70;97.00;;;;;;5036795;28;20347;-66
2021/03/18 12:03:13;;;;;;;;;;;7.90;96.30;;;;;;5037171;28;19925;-65
2021/03/18 12:05:40;;;;;;;;;;;8.00;95.70;;;;;;5036914;28;19931;-65
2021/03/18 12:08:07;;;;;;;;;;;8.10;94.90;;;;;;5037021;28;19936;-66
2021/03/18 12:10:33;;;;;;;;;;;8.10;96.00;;;;;;5037038;28;19925;-65
2021/03/18 12:12:59;;;;;;;;;;;8.40;95.50;;;;;;5036453;28;19991;-65
2021/03/18 12:15:25;;;;;;;;;;;8.50;95.20;;;;;;5037055;28;19925;-65
2021/03/18 12:17:51;;;;;;;;;;;8.30;93.70;;;;;;5036674;28;20391;-65
2021/03/18 12:20:19;;;;;;;;;;;8.40;93.30;;;;;;5036582;28;19972;-65
2021/03/18 12:22:46;;;;;;;;;;;8.30;92.90;;;;;;5036650;28;19932;-65
2021/03/18 12:25:14;;;;;;;;;;;8.40;92.80;;;;;;5036597;28;19925;-65
2021/03/18 12:27:40;;;;;;;;;;;8.60;93.10;;;;;;5036530;28;19952;-65
2021/03/18 12:30:07;;;;;;;;;;;8.50;90.10;;;;;;5036408;28;19929;-65
2021/03/18 12:32:33;;;;;;;;;;;8.60;93.00;;;;;;5036236;28;20342;-65
2021/03/18 12:35:00;;;;;;;;;;;8.60;96.80;;;;;;5036700;28;19979;-65
2021/03/18 12:37:26;;;;;;;;;;;8.40;98.70;;;;;;5036185;28;20380;-65
2021/03/18 12:39:53;;;;;;;;;;;8.40;99.30;;;;;;5035914;28;19925;-66
2021/03/18 12:42:19;;;;;;;;;;;8.20;99.90;;;;;;5036220;28;20275;-65
2021/03/18 12:44:45;;;;;;;;;;;8.20;99.90;;;;;;5036123;28;19925;-66
2021/03/18 12:47:11;;;;;;;;;;;8.30;99.90;;;;;;5036230;28;19926;-65
2021/03/18 12:49:37;;;;;;;;;;;8.10;99.90;;;;;;5036049;28;19925;-65
2021/03/18 12:52:04;;;;;;;;;;;8.40;99.90;;;;;;5035951;28;19932;-65
2021/03/18 12:54:30;;;;;;;;;;;8.50;99.80;;;;;;5036057;28;19926;-65
2021/03/18 12:56:57;;;;;;;;;;;8.50;98.30;;;;;;5036534;28;19929;-65
2021/03/18 12:59:23;;;;;;;;;;;8.50;99.70;;;;;;5038799;28;19925;-65
2021/03/18 13:01:49;;;;;;;;;;;8.30;99.70;;;;;;5038942;28;19925;-65
2021/03/18 13:04:15;;;;;;;;;;;8.30;99.90;;;;;;5037803;28;19929;-66
2021/03/18 13:06:41;;;;;;;;;;;8.60;99.80;;;;;;5035210;28;19951;-65
2021/03/18 13:09:07;;;;;;;;;;;8.70;99.90;;;;;;5035702;28;20402;-65
2021/03/18 13:11:33;;;;;;;;;;;8.70;99.90;;;;;;5035460;28;19925;-65
2021/03/18 13:14:00;;;;;;;;;;;8.80;99.90;;;;;;5035682;28;19926;-66
2021/03/18 13:16:26;;;;;;;;;;;9.00;99.90;;;;;;5035914;28;20245;-66
2021/03/18 13:18:53;;;;;;;;;;;9.20;99.90;;;;;;5036186;28;19925;-65
2021/03/18 13:21:19;;;;;;;;;;;9.30;99.90;;;;;;5035478;28;20299;-65
2021/03/18 13:23:45;;;;;;;;;;;9.50;99.90;;;;;;5035457;28;19932;-66
2021/03/18 13:26:11;;;;;;;;;;;9.80;99.90;;;;;;5035281;28;20066;-66
2021/03/18 13:28:37;;;;;;;;;;;10.10;99.80;;;;;;5035554;28;19937;-66
2021/03/18 13:31:05;;;;;;;;;;;10.30;99.90;;;;;;5035944;28;19925;-66
2021/03/18 13:33:31;;;;;;;;;;;10.20;99.90;;;;;;5035628;28;19925;-65
2021/03/18 13:35:57;;;;;;;;;;;10.30;99.70;;;;;;5035708;28;19925;-66
2021/03/18 13:38:24;;;;;;;;;;;10.20;95.90;;;;;;5035707;28;19975;-66
2021/03/18 13:40:50;;;;;;;;;;;9.30;98.80;;;;;;5035656;28;19925;-66
2021/03/18 13:43:17;;;;;;;;;;;9.70;98.90;;;;;;5035318;28;20030;-66
2021/03/18 13:45:44;;;;;;;;;;;9.80;99.90;;;;;;5035397;28;19925;-66
2021/03/18 13:48:11;;;;;;;;;;;10.00;98.40;;;;;;5035452;28;19926;-65
2021/03/18 13:50:38;;;;;;;;;;;10.00;97.00;;;;;;5035029;28;19925;-65
2021/03/18 13:53:04;;;;;;;;;;;9.90;98.50;;;;;;5034994;28;19933;-65
2021/03/18 13:55:31;;;;;;;;;;;10.20;99.90;;;;;;5034825;28;19925;-66
2021/03/18 13:57:57;;;;;;;;;;;10.10;99.50;;;;;;5034881;28;19956;-66
2021/03/18 14:00:23;;;;;;;;;;;9.90;97.50;;;;;;5034577;28;20379;-65
2021/03/18 14:02:49;;;;;;;;;;;10.10;98.10;;;;;;5034519;28;19932;-65
2021/03/18 14:05:17;;;;;;;;;;;10.10;97.90;;;;;;5035005;28;19932;-65
2021/03/18 14:07:43;;;;;;;;;;;10.20;97.70;;;;;;5034964;28;19925;-65
2021/03/18 14:10:10;;;;;;;;;;;10.20;98.00;;;;;;5034539;28;19932;-65
2021/03/18 14:12:36;;;;;;;;;;;10.20;95.30;;;;;;5034080;28;19951;-65
2021/03/18 14:15:02;;;;;;;;;;;10.20;93.90;;;;;;5034716;28;19995;-66
2021/03/18 14:17:28;;;;;;;;;;;9.90;96.10;;;;;;5034336;28;19935;-66
2021/03/18 14:19:55;;;;;;;;;;;10.10;96.40;;;;;;5034546;28;20288;-66
2021/03/18 14:22:23;;;;;;;;;;;10.10;94.60;;;;;;5034265;28;19925;-66
2021/03/18 14:24:49;;;;;;;;;;;9.70;93.70;;;;;;5034369;28;20291;-65
2021/03/18 14:27:15;;;;;;;;;;;9.70;94.20;;;;;;5034189;28;19933;-65
2021/03/18 14:29:41;;;;;;;;;;;9.60;93.20;;;;;;5033982;28;19929;-66
2021/03/18 14:32:07;;;;;;;;;;;9.70;93.30;;;;;;5035373;28;19925;-64
2021/03/18 14:34:33;;;;;;;;;;;10.20;99.90;;;;;;5033513;28;19925;-65
2021/03/18 14:37:00;;;;;;;;;;;10.10;99.90;;;;;;5034371;28;19932;-65
2021/03/18 14:39:26;;;;;;;;;;;10.50;99.90;;;;;;5034233;28;19925;-65
2021/03/18 14:41:52;;;;;;;;;;;10.80;98.60;;;;;;5033760;28;20380;-64
2021/03/18 14:44:19;;;;;;;;;;;11.00;96.10;;;;;;5034166;28;19929;-63
2021/03/18 14:46:45;;;;;;;;;;;11.30;97.20;;;;;;5034208;28;19925;-64
2021/03/18 14:49:11;;;;;;;;;;;11.60;93.40;;;;;;5033985;28;19925;-64
2021/03/18 14:51:37;;;;;;;;;;;12.10;97.70;;;;;;5033993;28;19925;-63
2021/03/18 14:54:05;;;;;;;;;;;12.40;95.10;;;;;;5034034;28;19925;-66
2021/03/18 14:56:32;;;;;;;;;;;12.40;97.20;;;;;;5034552;28;19925;-65
2021/03/18 14:58:59;;;;;;;;;;;12.70;99.00;;;;;;5034602;28;19952;-64
2021/03/18 15:01:25;;;;;;;;;;;12.60;96.90;;;;;;5034022;28;19932;-66
2021/03/18 15:03:52;;;;;;;;;;;11.90;91.70;;;;;;5034095;28;19925;-66
2021/03/18 15:06:18;;;;;;;;;;;11.30;92.70;;;;;;5033834;28;19929;-67
2021/03/18 15:08:44;;;;;;;;;;;11.00;93.20;;;;;;5033534;28;19925;-66
2021/03/18 15:11:10;;;;;;;;;;;10.70;92.40;;;;;;5033545;28;20394;-65
2021/03/18 15:13:37;;;;;;;;;;;10.60;93.40;;;;;;5033846;28;20028;-65
2021/03/18 15:16:03;;;;;;;;;;;10.10;94.60;;;;;;5033922;28;19932;-65
2021/03/18 15:18:29;;;;;;;;;;;9.80;95.60;;;;;;5033850;28;19929;-66
2021/03/18 15:20:55;;;;;;;;;;;9.40;96.20;;;;;;5033816;28;19925;-66
2021/03/18 15:23:21;;;;;;;;;;;9.30;98.20;;;;;;5033779;28;19937;-66
2021/03/18 15:25:47;;;;;;;;;;;9.20;98.80;;;;;;5033551;28;19925;-65
2021/03/18 15:28:14;;;;;;;;;;;8.90;99.80;;;;;;5034529;28;19925;-65
2021/03/18 15:30:42;;;;;;;;;;;8.50;99.90;;;;;;5037653;28;19932;-66
2021/03/18 15:33:09;;;;;;;;;;;8.30;99.90;;;;;;5037535;28;19929;-66
2021/03/18 15:35:36;;;;;;;;;;;8.10;99.90;;;;;;5037426;28;19965;-66
2021/03/18 15:38:02;;;;;;;;;;;7.90;99.90;;;;;;5037223;28;19925;-66
2021/03/18 15:40:28;;;;;;;;;;;7.90;99.90;;;;;;5037813;28;19948;-66
2021/03/18 15:42:54;;;;;;;;;;;7.80;99.90;;;;;;5037230;28;19925;-66
2021/03/18 15:45:23;;;;;;;;;;;7.60;99.90;;;;;;5037415;28;19995;-66
2021/03/18 15:47:50;;;;;;;;;;;7.20;99.90;;;;;;5037639;28;20339;-66
2021/03/18 15:50:17;;;;;;;;;;;6.80;99.90;;;;;;5037549;28;19934;-66
2021/03/18 15:52:43;;;;;;;;;;;6.70;99.90;;;;;;5037135;28;19931;-66
2021/03/18 15:55:09;;;;;;;;;;;6.60;99.90;;;;;;5037274;28;19925;-66
2021/03/18 15:57:36;;;;;;;;;;;6.70;99.90;;;;;;5037494;28;19925;-66
2021/03/18 16:00:03;;;;;;;;;;;6.80;99.90;;;;;;5037221;28;19925;-66
2021/03/18 16:02:29;;;;;;;;;;;6.70;99.90;;;;;;5037676;28;19929;-66
2021/03/18 16:04:55;;;;;;;;;;;6.80;99.90;;;;;;5037323;28;19932;-66
2021/03/18 16:07:22;;;;;;;;;;;6.80;99.90;;;;;;5037096;28;20375;-66
2021/03/18 16:09:48;;;;;;;;;;;6.80;99.90;;;;;;5036944;28;19925;-66
2021/03/18 16:12:14;;;;;;;;;;;6.90;99.90;;;;;;5036763;28;19925;-66
2021/03/18 16:14:40;;;;;;;;;;;6.90;99.90;;;;;;5037216;28;19925;-66
2021/03/18 16:17:06;;;;;;;;;;;6.90;99.90;;;;;;5037017;28;19925;-66
2021/03/18 16:19:32;;;;;;;;;;;6.90;99.90;;;;;;5037181;28;19925;-67
2021/03/18 16:21:59;;;;;;;;;;;6.90;99.90;;;;;;5036896;28;19925;-66
2021/03/18 16:24:25;;;;;;;;;;;6.90;99.90;;;;;;5036937;28;19929;-66
2021/03/18 16:26:51;;;;;;;;;;;6.60;99.90;;;;;;5038022;28;19925;-66
2021/03/18 16:29:17;;;;;;;;;;;6.60;99.90;;;;;;5044414;28;19925;-66
2021/03/18 16:31:43;;;;;;;;;;;6.40;99.90;;;;;;5046469;28;19925;-66
2021/03/18 16:34:09;;;;;;;;;;;6.50;99.90;;;;;;5048710;28;19925;-67
2021/03/18 16:36:35;;;;;;;;;;;6.50;99.90;;;;;;5043214;28;20012;-67
2021/03/18 16:39:03;;;;;;;;;;;6.50;99.90;;;;;;5035812;28;19937;-67
2021/03/18 16:41:29;;;;;;;;;;;6.40;99.90;;;;;;5035007;28;19929;-67
2021/03/18 16:43:55;;;;;;;;;;;6.60;99.90;;;;;;5036244;28;19925;-66
2021/03/18 16:46:21;;;;;;;;;;;6.60;99.90;;;;;;5036246;28;19929;-67
2021/03/18 16:48:47;;;;;;;;;;;6.60;99.90;;;;;;5036739;28;19941;-65
2021/03/18 16:51:13;;;;;;;;;;;6.50;99.90;;;;;;5036625;28;19925;-66
2021/03/18 16:53:39;;;;;;;;;;;6.60;99.90;;;;;;5036217;28;19975;-65
2021/03/18 16:56:06;;;;;;;;;;;6.50;99.90;;;;;;5036374;28;19925;-66
2021/03/18 16:58:34;;;;;;;;;;;6.60;99.90;;;;;;5036778;28;19932;-67
2021/03/18 17:01:00;;;;;;;;;;;6.50;99.90;;;;;;5037179;28;19925;-66
2021/03/18 17:03:26;;;;;;;;;;;6.50;99.90;;;;;;5036391;28;20273;-66
2021/03/18 17:05:52;;;;;;;;;;;6.40;99.90;;;;;;5036025;28;19932;-66
2021/03/18 17:08:18;;;;;;;;;;;6.30;99.90;;;;;;5035680;28;19925;-66
2021/03/18 17:10:45;;;;;;;;;;;6.30;99.90;;;;;;5035450;28;19933;-67
2021/03/18 17:13:13;;;;;;;;;;;6.30;99.90;;;;;;5034973;28;20304;-66
2021/03/18 17:15:39;;;;;;;;;;;6.30;99.90;;;;;;5035789;28;19974;-66
2021/03/18 17:18:07;;;;;;;;;;;6.30;99.90;;;;;;5035403;28;19971;-67
2021/03/18 17:20:33;;;;;;;;;;;6.30;99.90;;;;;;5035067;28;20060;-66
2021/03/18 17:22:59;;;;;;;;;;;6.30;99.90;;;;;;5035323;28;19939;-66
2021/03/18 17:25:27;;;;;;;;;;;6.20;99.90;;;;;;5035503;28;19925;-66
2021/03/18 17:27:53;;;;;;;;;;;6.30;99.90;;;;;;5035219;28;19925;-67
2021/03/18 17:30:22;;;;;;;;;;;6.40;99.90;;;;;;5035255;28;19925;-66
2021/03/18 17:32:49;;;;;;;;;;;6.40;99.90;;;;;;5034965;28;19944;-69
2021/03/18 17:35:16;;;;;;;;;;;6.40;99.90;;;;;;5034844;28;20387;-68
2021/03/18 17:37:43;;;;;;;;;;;6.40;99.90;;;;;;5034847;28;19925;-68
2021/03/18 17:40:10;;;;;;;;;;;6.40;99.90;;;;;;5034895;28;19936;-68
2021/03/18 17:42:36;;;;;;;;;;;6.20;99.90;;;;;;5035266;28;19925;-66
2021/03/18 17:45:03;;;;;;;;;;;6.20;99.90;;;;;;5034812;28;20415;-68
2021/03/18 17:47:30;;;;;;;;;;;6.20;99.90;;;;;;5034725;28;20457;-66
2021/03/18 17:49:56;;;;;;;;;;;6.10;99.90;;;;;;5034730;28;20438;-65
2021/03/18 17:52:22;;;;;;;;;;;6.00;99.90;;;;;;5034102;28;20384;-67
2021/03/18 17:54:48;;;;;;;;;;;6.00;99.90;;;;;;5034980;28;20301;-65
2021/03/18 17:57:14;;;;;;;;;;;5.90;99.90;;;;;;5035080;28;19995;-66
2021/03/18 17:59:40;;;;;;;;;;;5.90;99.90;;;;;;5034976;28;19929;-65
2021/03/18 18:02:06;;;;;;;;;;;5.80;99.90;;;;;;5035394;28;20479;-67
2021/03/18 18:04:33;;;;;;;;;;;5.80;99.90;;;;;;5035500;28;19925;-65
2021/03/18 18:07:00;;;;;;;;;;;5.70;99.90;;;;;;5035622;28;20287;-64
2021/03/18 18:09:26;;;;;;;;;;;5.60;99.90;;;;;;5035138;28;19926;-65
2021/03/18 18:11:52;;;;;;;;;;;5.60;99.90;;;;;;5034896;28;19975;-65
2021/03/18 18:14:18;;;;;;;;;;;5.50;99.90;;;;;;5035349;28;19929;-65
2021/03/18 18:16:44;;;;;;;;;;;5.40;99.90;;;;;;5035288;28;19925;-66
2021/03/18 18:19:14;;;;;;;;;;;5.40;99.90;;;;;;5035077;28;20376;-65
2021/03/18 18:21:41;;;;;;;;;;;5.40;99.90;;;;;;5035537;28;19926;-65
2021/03/18 18:24:08;;;;;;;;;;;5.30;99.90;;;;;;5035893;28;19929;-65
2021/03/18 18:26:34;;;;;;;;;;;5.20;99.90;;;;;;5035692;28;19929;-65
2021/03/18 18:29:00;;;;;;;;;;;5.20;99.90;;;;;;5035074;28;19932;-65
2021/03/18 18:31:28;;;;;;;;;;;5.10;99.90;;;;;;5034124;28;21321;-66
2021/03/18 18:33:54;;;;;;;;;;;5.10;99.90;;;;;;5034525;28;19940;-65
2021/03/18 18:36:20;;;;;;;;;;;5.00;99.90;;;;;;5034799;28;19925;-62
2021/03/18 18:38:48;;;;;;;;;;;5.00;99.90;;;;;;5035142;28;19932;-64
2021/03/18 18:41:14;;;;;;;;;;;5.00;99.90;;;;;;5034554;28;19925;-64
2021/03/18 18:43:40;;;;;;;;;;;4.90;99.90;;;;;;5034824;28;19926;-64
2021/03/18 18:46:06;;;;;;;;;;;4.90;99.90;;;;;;5034821;28;20335;-65
2021/03/18 18:48:32;;;;;;;;;;;4.90;99.90;;;;;;5034986;28;19932;-64
2021/03/18 18:50:58;;;;;;;;;;;4.90;99.90;;;;;;5034757;28;19928;-63
2021/03/18 18:53:24;;;;;;;;;;;5.00;99.90;;;;;;5034678;28;20040;-63
2021/03/18 18:55:51;;;;;;;;;;;5.10;99.90;;;;;;5034721;28;19932;-65
2021/03/18 18:58:18;;;;;;;;;;;5.10;99.90;;;;;;5034671;28;19925;-64
2021/03/18 19:00:44;;;;;;;;;;;5.20;99.90;;;;;;5034598;28;19980;-65
2021/03/18 19:03:10;;;;;;;;;;;5.20;99.90;;;;;;5033304;28;19931;-64
2021/03/18 19:05:36;;;;;;;;;;;5.30;99.90;;;;;;5034548;28;19930;-64
2021/03/18 19:08:02;;;;;;;;;;;5.30;99.90;;;;;;5034627;28;20283;-63
2021/03/18 19:10:30;;;;;;;;;;;5.30;99.90;;;;;;5034609;28;19929;-64
2021/03/18 19:12:57;;;;;;;;;;;5.30;99.90;;;;;;5034246;28;19925;-64
2021/03/18 19:15:23;;;;;;;;;;;5.20;99.90;;;;;;5034407;28;19929;-63
2021/03/18 19:17:49;;;;;;;;;;;5.20;99.90;;;;;;5034254;28;19929;-64
2021/03/18 19:20:16;;;;;;;;;;;5.30;99.90;;;;;;5034504;28;19925;-64
2021/03/18 19:22:42;;;;;;;;;;;5.30;99.90;;;;;;5034063;28;19925;-64
2021/03/18 19:25:09;;;;;;;;;;;5.30;99.90;;;;;;5034935;28;19947;-63